sensor_id;sensor_type;location;lat;lon;timestamp;temperature;humidity
42913;DHT22;50720;54.324;18.558;2023-05-07T00:02:11;5.60;99.90
42913;DHT22;50720;54.324;18.558;2023-05-07T00:04:41;5.50;99.90
42913;DHT22;50720;54.324;18.558;2023-05-07T00:07:11;5.50;99.90
42913;DHT22;50720;54.324;18.558;2023-05-07T00:09:40;5.50;99.90
42913;DHT22;50720;54.324;18.558;2023-05-07T00:12:11;5.40;99.90
42913;DHT22;50720;54.324;18.558;2023-05-07T00:14:41;5.40;99.90
42913;DHT22;50720;54.324;18.558;2023-05-07T00:17:11;5.40;99.90
42913;DHT22;50720;54.324;18.558;2023-05-07T00:19:41;5.40;99.90
42913;DHT22;50720;54.324;18.558;2023-05-07T00:22:11;5.30;99.90
42913;DHT22;50720;54.324;18.558;2023-05-07T00:24:40;5.30;99.90
42913;DHT22;50720;54.324;18.558;2023-05-07T00:27:11;5.30;99.90
42913;DHT22;50720;54.324;18.558;2023-05-07T00:29:41;5.30;99.90
42913;DHT22;50720;54.324;18.558;2023-05-07T00:32:10;5.30;99.90
42913;DHT22;50720;54.324;18.558;2023-05-07T00:34:40;5.30;99.90
42913;DHT22;50720;54.324;18.558;2023-05-07T00:37:10;5.20;99.90
42913;DHT22;50720;54.324;18.558;2023-05-07T00:39:39;5.20;99.90
42913;DHT22;50720;54.324;18.558;2023-05-07T00:42:09;5.30;99.90
42913;DHT22;50720;54.324;18.558;2023-05-07T00:44:39;5.30;99.90
42913;DHT22;50720;54.324;18.558;2023-05-07T00:47:10;5.30;99.90
42913;DHT22;50720;54.324;18.558;2023-05-07T00:49:41;5.30;99.90
42913;DHT22;50720;54.324;18.558;2023-05-07T00:52:13;5.20;99.90
42913;DHT22;50720;54.324;18.558;2023-05-07T00:54:43;5.20;99.90
42913;DHT22;50720;54.324;18.558;2023-05-07T00:57:13;5.20;99.90
42913;DHT22;50720;54.324;18.558;2023-05-07T00:59:45;5.20;99.90
42913;DHT22;50720;54.324;18.558;2023-05-07T01:02:15;5.20;99.90
42913;DHT22;50720;54.324;18.558;2023-05-07T01:04:44;5.20;99.90
42913;DHT22;50720;54.324;18.558;2023-05-07T01:07:15;5.30;99.90
42913;DHT22;50720;54.324;18.558;2023-05-07T01:09:44;5.20;99.90
42913;DHT22;50720;54.324;18.558;2023-05-07T01:12:14;5.10;99.90
42913;DHT22;50720;54.324;18.558;2023-05-07T01:14:45;4.90;99.90
42913;DHT22;50720;54.324;18.558;2023-05-07T01:17:16;4.90;99.90
42913;DHT22;50720;54.324;18.558;2023-05-07T01:19:46;4.80;99.90
42913;DHT22;50720;54.324;18.558;2023-05-07T01:22:34;4.60;99.90
42913;DHT22;50720;54.324;18.558;2023-05-07T01:25:05;4.60;99.90
42913;DHT22;50720;54.324;18.558;2023-05-07T01:27:35;4.60;99.90
42913;DHT22;50720;54.324;18.558;2023-05-07T01:30:06;4.60;99.90
42913;DHT22;50720;54.324;18.558;2023-05-07T01:32:42;4.40;99.90
42913;DHT22;50720;54.324;18.558;2023-05-07T01:35:15;4.20;99.90
42913;DHT22;50720;54.324;18.558;2023-05-07T01:37:50;4.30;99.90
42913;DHT22;50720;54.324;18.558;2023-05-07T01:40:19;4.40;99.90
42913;DHT22;50720;54.324;18.558;2023-05-07T01:42:49;4.40;99.90
42913;DHT22;50720;54.324;18.558;2023-05-07T01:45:18;4.20;99.90
42913;DHT22;50720;54.324;18.558;2023-05-07T01:47:49;4.20;99.90
42913;DHT22;50720;54.324;18.558;2023-05-07T01:50:19;4.10;99.90
42913;DHT22;50720;54.324;18.558;2023-05-07T01:52:52;4.20;99.90
42913;DHT22;50720;54.324;18.558;2023-05-07T01:55:21;4.10;99.90
42913;DHT22;50720;54.324;18.558;2023-05-07T01:57:51;4.10;99.90
42913;DHT22;50720;54.324;18.558;2023-05-07T02:00:21;4.10;99.90
42913;DHT22;50720;54.324;18.558;2023-05-07T02:02:51;4.10;99.90
42913;DHT22;50720;54.324;18.558;2023-05-07T02:05:20;4.00;99.90
42913;DHT22;50720;54.324;18.558;2023-05-07T02:07:52;3.90;99.90
42913;DHT22;50720;54.324;18.558;2023-05-07T02:10:21;3.80;99.90
42913;DHT22;50720;54.324;18.558;2023-05-07T02:12:51;3.70;99.90
42913;DHT22;50720;54.324;18.558;2023-05-07T02:15:21;3.60;99.90
42913;DHT22;50720;54.324;18.558;2023-05-07T02:18:01;3.50;99.90
42913;DHT22;50720;54.324;18.558;2023-05-07T02:20:31;3.50;99.90
42913;DHT22;50720;54.324;18.558;2023-05-07T02:23:02;3.50;99.90
42913;DHT22;50720;54.324;18.558;2023-05-07T02:25:31;3.40;99.90
42913;DHT22;50720;54.324;18.558;2023-05-07T02:28:01;3.40;99.90
42913;DHT22;50720;54.324;18.558;2023-05-07T02:30:30;3.20;99.90
42913;DHT22;50720;54.324;18.558;2023-05-07T02:33:00;3.20;99.90
42913;DHT22;50720;54.324;18.558;2023-05-07T02:35:29;3.20;99.90
42913;DHT22;50720;54.324;18.558;2023-05-07T02:37:59;3.20;99.90
42913;DHT22;50720;54.324;18.558;2023-05-07T02:40:30;3.10;99.90
42913;DHT22;50720;54.324;18.558;2023-05-07T02:43:01;3.00;99.90
42913;DHT22;50720;54.324;18.558;2023-05-07T02:45:31;2.90;99.90
42913;DHT22;50720;54.324;18.558;2023-05-07T02:48:01;2.70;99.90
42913;DHT22;50720;54.324;18.558;2023-05-07T02:50:30;2.60;99.90
42913;DHT22;50720;54.324;18.558;2023-05-07T02:53:00;2.60;99.90
42913;DHT22;50720;54.324;18.558;2023-05-07T02:55:31;2.60;99.90
42913;DHT22;50720;54.324;18.558;2023-05-07T02:58:01;2.40;99.90
42913;DHT22;50720;54.324;18.558;2023-05-07T03:00:30;2.40;99.90
42913;DHT22;50720;54.324;18.558;2023-05-07T03:03:00;2.40;99.90
42913;DHT22;50720;54.324;18.558;2023-05-07T03:05:30;2.30;99.90
42913;DHT22;50720;54.324;18.558;2023-05-07T03:08:00;2.20;99.90
42913;DHT22;50720;54.324;18.558;2023-05-07T03:10:31;2.20;99.90
42913;DHT22;50720;54.324;18.558;2023-05-07T03:13:01;2.10;99.90
42913;DHT22;50720;54.324;18.558;2023-05-07T03:15:30;2.20;99.90
42913;DHT22;50720;54.324;18.558;2023-05-07T03:18:00;2.30;99.90
42913;DHT22;50720;54.324;18.558;2023-05-07T03:20:30;2.20;99.90
42913;DHT22;50720;54.324;18.558;2023-05-07T03:22:59;2.20;99.90
42913;DHT22;50720;54.324;18.558;2023-05-07T03:25:29;2.20;99.90
42913;DHT22;50720;54.324;18.558;2023-05-07T03:28:00;2.20;99.90
42913;DHT22;50720;54.324;18.558;2023-05-07T03:30:30;2.10;99.90
42913;DHT22;50720;54.324;18.558;2023-05-07T03:33:01;2.20;99.90
42913;DHT22;50720;54.324;18.558;2023-05-07T03:35:30;2.20;99.90
42913;DHT22;50720;54.324;18.558;2023-05-07T03:38:00;2.30;99.90
42913;DHT22;50720;54.324;18.558;2023-05-07T03:43:01;2.50;99.90
42913;DHT22;50720;54.324;18.558;2023-05-07T03:45:30;2.50;99.90
42913;DHT22;50720;54.324;18.558;2023-05-07T03:48:00;2.60;99.90
42913;DHT22;50720;54.324;18.558;2023-05-07T03:50:29;2.60;99.90
42913;DHT22;50720;54.324;18.558;2023-05-07T03:52:59;2.70;99.90
42913;DHT22;50720;54.324;18.558;2023-05-07T03:55:30;2.70;99.90
42913;DHT22;50720;54.324;18.558;2023-05-07T03:58:01;2.90;99.90
42913;DHT22;50720;54.324;18.558;2023-05-07T04:00:30;3.00;99.90
42913;DHT22;50720;54.324;18.558;2023-05-07T04:03:02;3.00;99.90
42913;DHT22;50720;54.324;18.558;2023-05-07T04:05:32;3.20;99.90
42913;DHT22;50720;54.324;18.558;2023-05-07T04:08:02;3.30;99.90
42913;DHT22;50720;54.324;18.558;2023-05-07T04:10:31;3.40;99.90
42913;DHT22;50720;54.324;18.558;2023-05-07T04:13:02;3.60;99.90
42913;DHT22;50720;54.324;18.558;2023-05-07T04:15:31;3.80;99.90
42913;DHT22;50720;54.324;18.558;2023-05-07T04:18:01;3.80;99.90
42913;DHT22;50720;54.324;18.558;2023-05-07T04:20:30;4.00;99.90
42913;DHT22;50720;54.324;18.558;2023-05-07T04:23:04;4.00;99.90
42913;DHT22;50720;54.324;18.558;2023-05-07T04:25:33;4.20;99.90
42913;DHT22;50720;54.324;18.558;2023-05-07T04:28:05;4.40;99.90
42913;DHT22;50720;54.324;18.558;2023-05-07T04:30:34;4.40;99.90
42913;DHT22;50720;54.324;18.558;2023-05-07T04:33:04;4.70;99.90
42913;DHT22;50720;54.324;18.558;2023-05-07T04:35:35;4.90;99.90
42913;DHT22;50720;54.324;18.558;2023-05-07T04:38:05;5.00;99.90
42913;DHT22;50720;54.324;18.558;2023-05-07T04:40:35;5.10;99.90
42913;DHT22;50720;54.324;18.558;2023-05-07T04:43:07;5.30;99.90
42913;DHT22;50720;54.324;18.558;2023-05-07T04:48:09;5.70;99.90
42913;DHT22;50720;54.324;18.558;2023-05-07T04:50:39;5.70;99.90
42913;DHT22;50720;54.324;18.558;2023-05-07T04:53:08;6.00;99.90
42913;DHT22;50720;54.324;18.558;2023-05-07T04:55:38;6.30;99.90
42913;DHT22;50720;54.324;18.558;2023-05-07T04:58:09;6.40;99.90
42913;DHT22;50720;54.324;18.558;2023-05-07T05:00:38;6.40;99.90
42913;DHT22;50720;54.324;18.558;2023-05-07T05:03:08;6.80;99.90
42913;DHT22;50720;54.324;18.558;2023-05-07T05:05:37;7.00;99.90
42913;DHT22;50720;54.324;18.558;2023-05-07T05:08:07;7.20;99.90
42913;DHT22;50720;54.324;18.558;2023-05-07T05:10:36;7.30;99.90
42913;DHT22;50720;54.324;18.558;2023-05-07T05:13:06;7.50;99.90
42913;DHT22;50720;54.324;18.558;2023-05-07T05:15:38;7.70;99.90
42913;DHT22;50720;54.324;18.558;2023-05-07T05:18:08;7.80;99.90
42913;DHT22;50720;54.324;18.558;2023-05-07T05:20:37;7.80;99.90
42913;DHT22;50720;54.324;18.558;2023-05-07T05:23:08;8.00;99.90
42913;DHT22;50720;54.324;18.558;2023-05-07T05:25:37;8.30;99.90
42913;DHT22;50720;54.324;18.558;2023-05-07T05:28:07;8.20;99.90
42913;DHT22;50720;54.324;18.558;2023-05-07T05:30:38;8.30;99.90
42913;DHT22;50720;54.324;18.558;2023-05-07T05:33:08;8.30;99.90
42913;DHT22;50720;54.324;18.558;2023-05-07T05:35:37;8.40;99.90
42913;DHT22;50720;54.324;18.558;2023-05-07T05:38:07;8.40;99.90
42913;DHT22;50720;54.324;18.558;2023-05-07T05:40:37;8.50;99.90
42913;DHT22;50720;54.324;18.558;2023-05-07T05:43:07;8.80;99.90
42913;DHT22;50720;54.324;18.558;2023-05-07T05:45:37;8.80;99.90
42913;DHT22;50720;54.324;18.558;2023-05-07T05:48:07;9.00;99.90
42913;DHT22;50720;54.324;18.558;2023-05-07T05:50:37;9.00;99.90
42913;DHT22;50720;54.324;18.558;2023-05-07T05:53:07;9.00;99.90
42913;DHT22;50720;54.324;18.558;2023-05-07T05:55:36;9.10;99.90
42913;DHT22;50720;54.324;18.558;2023-05-07T05:58:06;9.00;99.90
42913;DHT22;50720;54.324;18.558;2023-05-07T06:00:36;9.20;99.90
42913;DHT22;50720;54.324;18.558;2023-05-07T06:03:07;9.10;99.90
42913;DHT22;50720;54.324;18.558;2023-05-07T06:05:36;9.20;99.90
42913;DHT22;50720;54.324;18.558;2023-05-07T06:08:05;9.20;99.90
42913;DHT22;50720;54.324;18.558;2023-05-07T06:10:36;9.20;99.90
42913;DHT22;50720;54.324;18.558;2023-05-07T06:13:05;9.20;99.90
42913;DHT22;50720;54.324;18.558;2023-05-07T06:15:35;9.10;99.90
42913;DHT22;50720;54.324;18.558;2023-05-07T06:18:06;9.10;99.90
42913;DHT22;50720;54.324;18.558;2023-05-07T06:20:36;9.10;99.90
42913;DHT22;50720;54.324;18.558;2023-05-07T06:23:05;9.20;99.90
42913;DHT22;50720;54.324;18.558;2023-05-07T06:25:35;9.30;99.90
42913;DHT22;50720;54.324;18.558;2023-05-07T06:28:05;9.30;99.90
42913;DHT22;50720;54.324;18.558;2023-05-07T06:30:35;9.30;99.90
42913;DHT22;50720;54.324;18.558;2023-05-07T06:33:07;9.50;99.90
42913;DHT22;50720;54.324;18.558;2023-05-07T06:35:36;9.50;99.90
42913;DHT22;50720;54.324;18.558;2023-05-07T06:38:06;9.50;99.90
42913;DHT22;50720;54.324;18.558;2023-05-07T06:40:35;9.50;99.90
42913;DHT22;50720;54.324;18.558;2023-05-07T06:43:05;9.70;99.90
42913;DHT22;50720;54.324;18.558;2023-05-07T06:45:34;9.80;99.90
42913;DHT22;50720;54.324;18.558;2023-05-07T06:48:06;9.80;99.90
42913;DHT22;50720;54.324;18.558;2023-05-07T06:50:35;9.90;99.90
42913;DHT22;50720;54.324;18.558;2023-05-07T06:53:05;10.10;99.90
42913;DHT22;50720;54.324;18.558;2023-05-07T06:55:34;10.10;99.90
42913;DHT22;50720;54.324;18.558;2023-05-07T06:58:06;10.10;99.90
42913;DHT22;50720;54.324;18.558;2023-05-07T07:00:35;10.10;99.90
42913;DHT22;50720;54.324;18.558;2023-05-07T07:03:06;10.10;99.90
42913;DHT22;50720;54.324;18.558;2023-05-07T07:05:36;10.10;99.90
42913;DHT22;50720;54.324;18.558;2023-05-07T07:08:05;10.00;99.90
42913;DHT22;50720;54.324;18.558;2023-05-07T07:10:35;10.20;99.90
42913;DHT22;50720;54.324;18.558;2023-05-07T07:13:04;10.30;99.90
42913;DHT22;50720;54.324;18.558;2023-05-07T07:15:34;10.20;99.90
42913;DHT22;50720;54.324;18.558;2023-05-07T07:18:03;10.60;99.90
42913;DHT22;50720;54.324;18.558;2023-05-07T07:20:35;10.60;99.90
42913;DHT22;50720;54.324;18.558;2023-05-07T07:23:04;10.70;99.90
42913;DHT22;50720;54.324;18.558;2023-05-07T07:25:34;10.80;99.90
42913;DHT22;50720;54.324;18.558;2023-05-07T07:28:03;10.90;99.90
42913;DHT22;50720;54.324;18.558;2023-05-07T07:30:33;11.20;99.90
42913;DHT22;50720;54.324;18.558;2023-05-07T07:33:03;11.20;99.90
42913;DHT22;50720;54.324;18.558;2023-05-07T07:35:34;11.30;99.90
42913;DHT22;50720;54.324;18.558;2023-05-07T07:38:04;11.30;99.90
42913;DHT22;50720;54.324;18.558;2023-05-07T07:40:34;11.40;99.90
42913;DHT22;50720;54.324;18.558;2023-05-07T07:43:04;11.50;99.90
42913;DHT22;50720;54.324;18.558;2023-05-07T07:45:34;11.50;99.90
42913;DHT22;50720;54.324;18.558;2023-05-07T07:48:04;11.70;99.90
42913;DHT22;50720;54.324;18.558;2023-05-07T07:50:35;11.70;99.90
42913;DHT22;50720;54.324;18.558;2023-05-07T07:53:12;11.70;99.70
42913;DHT22;50720;54.324;18.558;2023-05-07T07:55:42;11.80;98.60
42913;DHT22;50720;54.324;18.558;2023-05-07T07:58:11;11.70;96.20
42913;DHT22;50720;54.324;18.558;2023-05-07T08:00:40;11.60;96.40
42913;DHT22;50720;54.324;18.558;2023-05-07T08:03:11;11.80;97.60
42913;DHT22;50720;54.324;18.558;2023-05-07T08:05:42;11.90;96.80
42913;DHT22;50720;54.324;18.558;2023-05-07T08:08:12;11.90;96.70
42913;DHT22;50720;54.324;18.558;2023-05-07T08:10:42;11.90;94.40
42913;DHT22;50720;54.324;18.558;2023-05-07T08:13:12;12.10;95.90
42913;DHT22;50720;54.324;18.558;2023-05-07T08:15:41;12.20;96.60
42913;DHT22;50720;54.324;18.558;2023-05-07T08:18:11;12.30;97.30
42913;DHT22;50720;54.324;18.558;2023-05-07T08:20:42;12.40;96.00
42913;DHT22;50720;54.324;18.558;2023-05-07T08:23:11;12.60;97.00
42913;DHT22;50720;54.324;18.558;2023-05-07T08:25:41;12.50;97.50
42913;DHT22;50720;54.324;18.558;2023-05-07T08:28:11;12.50;99.20
42913;DHT22;50720;54.324;18.558;2023-05-07T08:30:41;12.50;99.40
42913;DHT22;50720;54.324;18.558;2023-05-07T08:33:11;12.60;99.90
42913;DHT22;50720;54.324;18.558;2023-05-07T08:35:41;12.70;96.00
42913;DHT22;50720;54.324;18.558;2023-05-07T08:38:11;12.70;91.90
42913;DHT22;50720;54.324;18.558;2023-05-07T08:40:40;12.80;90.50
42913;DHT22;50720;54.324;18.558;2023-05-07T08:43:13;12.90;90.30
42913;DHT22;50720;54.324;18.558;2023-05-07T08:45:44;13.00;94.10
42913;DHT22;50720;54.324;18.558;2023-05-07T08:48:16;13.10;97.00
42913;DHT22;50720;54.324;18.558;2023-05-07T08:50:46;13.00;98.00
42913;DHT22;50720;54.324;18.558;2023-05-07T08:53:16;13.00;98.60
42913;DHT22;50720;54.324;18.558;2023-05-07T08:55:47;12.80;97.20
42913;DHT22;50720;54.324;18.558;2023-05-07T08:58:17;12.70;97.80
42913;DHT22;50720;54.324;18.558;2023-05-07T09:00:47;12.60;97.50
42913;DHT22;50720;54.324;18.558;2023-05-07T09:03:17;12.60;98.40
42913;DHT22;50720;54.324;18.558;2023-05-07T09:05:48;12.50;99.80
42913;DHT22;50720;54.324;18.558;2023-05-07T09:08:17;12.60;97.60
42913;DHT22;50720;54.324;18.558;2023-05-07T09:10:48;12.60;98.60
42913;DHT22;50720;54.324;18.558;2023-05-07T09:13:18;12.70;98.70
42913;DHT22;50720;54.324;18.558;2023-05-07T09:15:47;12.70;98.00
42913;DHT22;50720;54.324;18.558;2023-05-07T09:18:17;12.80;97.30
42913;DHT22;50720;54.324;18.558;2023-05-07T09:20:48;12.80;96.50
42913;DHT22;50720;54.324;18.558;2023-05-07T09:23:19;12.70;96.30
42913;DHT22;50720;54.324;18.558;2023-05-07T09:25:49;12.70;97.10
42913;DHT22;50720;54.324;18.558;2023-05-07T09:28:19;12.60;97.20
42913;DHT22;50720;54.324;18.558;2023-05-07T09:30:48;12.50;96.80
42913;DHT22;50720;54.324;18.558;2023-05-07T09:33:18;12.50;97.20
42913;DHT22;50720;54.324;18.558;2023-05-07T09:35:51;12.40;98.60
42913;DHT22;50720;54.324;18.558;2023-05-07T09:38:21;12.50;98.70
42913;DHT22;50720;54.324;18.558;2023-05-07T09:41:02;12.50;99.20
42913;DHT22;50720;54.324;18.558;2023-05-07T09:43:32;12.60;99.70
42913;DHT22;50720;54.324;18.558;2023-05-07T09:46:06;12.60;98.10
42913;DHT22;50720;54.324;18.558;2023-05-07T09:48:38;12.70;98.90
42913;DHT22;50720;54.324;18.558;2023-05-07T09:51:16;12.60;97.60
42913;DHT22;50720;54.324;18.558;2023-05-07T09:53:48;12.70;98.00
42913;DHT22;50720;54.324;18.558;2023-05-07T09:56:19;12.80;98.00
42913;DHT22;50720;54.324;18.558;2023-05-07T09:58:49;12.90;97.90
42913;DHT22;50720;54.324;18.558;2023-05-07T10:01:22;12.90;97.30
42913;DHT22;50720;54.324;18.558;2023-05-07T10:03:52;12.90;97.40
42913;DHT22;50720;54.324;18.558;2023-05-07T10:06:25;12.90;97.50
42913;DHT22;50720;54.324;18.558;2023-05-07T10:08:54;12.90;97.30
42913;DHT22;50720;54.324;18.558;2023-05-07T10:11:24;13.10;94.20
42913;DHT22;50720;54.324;18.558;2023-05-07T10:13:54;13.10;94.10
42913;DHT22;50720;54.324;18.558;2023-05-07T10:16:24;13.30;91.30
42913;DHT22;50720;54.324;18.558;2023-05-07T10:18:56;13.40;90.30
42913;DHT22;50720;54.324;18.558;2023-05-07T10:21:30;13.30;90.30
42913;DHT22;50720;54.324;18.558;2023-05-07T10:24:05;13.30;90.60
42913;DHT22;50720;54.324;18.558;2023-05-07T10:26:36;13.40;89.50
42913;DHT22;50720;54.324;18.558;2023-05-07T10:29:12;13.60;89.40
42913;DHT22;50720;54.324;18.558;2023-05-07T10:31:51;13.60;91.50
42913;DHT22;50720;54.324;18.558;2023-05-07T10:34:26;13.80;92.00
42913;DHT22;50720;54.324;18.558;2023-05-07T10:36:58;13.80;86.20
42913;DHT22;50720;54.324;18.558;2023-05-07T10:39:28;13.90;84.80
42913;DHT22;50720;54.324;18.558;2023-05-07T10:42:08;13.90;85.30
42913;DHT22;50720;54.324;18.558;2023-05-07T10:44:38;14.10;85.60
42913;DHT22;50720;54.324;18.558;2023-05-07T10:47:08;14.50;85.00
42913;DHT22;50720;54.324;18.558;2023-05-07T10:52:25;15.50;83.50
42913;DHT22;50720;54.324;18.558;2023-05-07T10:55:19;16.50;78.40
42913;DHT22;50720;54.324;18.558;2023-05-07T10:57:49;17.30;74.00
42913;DHT22;50720;54.324;18.558;2023-05-07T11:00:41;17.70;69.60
42913;DHT22;50720;54.324;18.558;2023-05-07T11:03:11;18.00;69.50
42913;DHT22;50720;54.324;18.558;2023-05-07T11:05:42;18.00;67.50
42913;DHT22;50720;54.324;18.558;2023-05-07T11:08:13;18.30;68.40
42913;DHT22;50720;54.324;18.558;2023-05-07T11:10:51;18.60;64.20
42913;DHT22;50720;54.324;18.558;2023-05-07T11:13:42;18.80;58.60
42913;DHT22;50720;54.324;18.558;2023-05-07T11:16:17;18.90;54.80
42913;DHT22;50720;54.324;18.558;2023-05-07T11:18:48;19.30;55.50
42913;DHT22;50720;54.324;18.558;2023-05-07T11:21:39;19.00;54.40
42913;DHT22;50720;54.324;18.558;2023-05-07T11:24:10;19.10;54.00
42913;DHT22;50720;54.324;18.558;2023-05-07T11:26:44;18.70;54.90
42913;DHT22;50720;54.324;18.558;2023-05-07T11:29:16;18.90;57.30
42913;DHT22;50720;54.324;18.558;2023-05-07T11:31:50;19.10;56.40
42913;DHT22;50720;54.324;18.558;2023-05-07T11:34:23;19.00;51.80
42913;DHT22;50720;54.324;18.558;2023-05-07T11:36:53;18.70;52.50
42913;DHT22;50720;54.324;18.558;2023-05-07T11:39:31;18.40;54.10
42913;DHT22;50720;54.324;18.558;2023-05-07T11:42:01;18.20;52.70
42913;DHT22;50720;54.324;18.558;2023-05-07T11:44:43;18.30;53.70
42913;DHT22;50720;54.324;18.558;2023-05-07T11:47:17;19.00;52.10
42913;DHT22;50720;54.324;18.558;2023-05-07T11:49:48;18.70;51.10
42913;DHT22;50720;54.324;18.558;2023-05-07T11:52:19;18.80;52.00
42913;DHT22;50720;54.324;18.558;2023-05-07T11:54:53;18.90;51.60
42913;DHT22;50720;54.324;18.558;2023-05-07T11:57:24;18.90;49.30
42913;DHT22;50720;54.324;18.558;2023-05-07T11:59:54;18.70;48.80
42913;DHT22;50720;54.324;18.558;2023-05-07T12:02:24;18.50;49.50
42913;DHT22;50720;54.324;18.558;2023-05-07T12:04:55;19.20;49.40
42913;DHT22;50720;54.324;18.558;2023-05-07T12:07:24;19.50;48.20
42913;DHT22;50720;54.324;18.558;2023-05-07T12:09:55;19.30;48.80
42913;DHT22;50720;54.324;18.558;2023-05-07T12:12:25;19.10;48.90
42913;DHT22;50720;54.324;18.558;2023-05-07T12:14:55;19.10;48.50
42913;DHT22;50720;54.324;18.558;2023-05-07T12:17:25;18.70;48.80
42913;DHT22;50720;54.324;18.558;2023-05-07T12:19:54;19.30;48.80
42913;DHT22;50720;54.324;18.558;2023-05-07T12:22:24;19.30;48.40
42913;DHT22;50720;54.324;18.558;2023-05-07T12:24:58;19.70;48.60
42913;DHT22;50720;54.324;18.558;2023-05-07T12:27:28;20.30;48.60
42913;DHT22;50720;54.324;18.558;2023-05-07T12:29:58;20.90;47.20
42913;DHT22;50720;54.324;18.558;2023-05-07T12:32:28;20.90;46.70
42913;DHT22;50720;54.324;18.558;2023-05-07T12:34:57;20.60;46.50
42913;DHT22;50720;54.324;18.558;2023-05-07T12:37:27;20.50;46.50
42913;DHT22;50720;54.324;18.558;2023-05-07T12:40:08;20.40;47.60
42913;DHT22;50720;54.324;18.558;2023-05-07T12:42:39;20.20;47.50
42913;DHT22;50720;54.324;18.558;2023-05-07T12:45:10;20.40;47.50
42913;DHT22;50720;54.324;18.558;2023-05-07T12:47:44;20.10;46.30
42913;DHT22;50720;54.324;18.558;2023-05-07T12:50:14;20.00;45.70
42913;DHT22;50720;54.324;18.558;2023-05-07T12:52:45;19.90;44.40
42913;DHT22;50720;54.324;18.558;2023-05-07T12:55:16;19.90;46.20
42913;DHT22;50720;54.324;18.558;2023-05-07T12:57:49;20.00;46.10
42913;DHT22;50720;54.324;18.558;2023-05-07T13:00:33;19.90;45.80
42913;DHT22;50720;54.324;18.558;2023-05-07T13:03:02;19.50;45.60
42913;DHT22;50720;54.324;18.558;2023-05-07T13:05:32;19.90;47.30
42913;DHT22;50720;54.324;18.558;2023-05-07T13:08:02;19.80;46.40
42913;DHT22;50720;54.324;18.558;2023-05-07T13:10:33;19.70;46.10
42913;DHT22;50720;54.324;18.558;2023-05-07T13:13:03;20.00;45.50
42913;DHT22;50720;54.324;18.558;2023-05-07T13:15:33;19.40;46.60
42913;DHT22;50720;54.324;18.558;2023-05-07T13:18:03;19.60;47.40
42913;DHT22;50720;54.324;18.558;2023-05-07T13:20:32;19.40;47.30
42913;DHT22;50720;54.324;18.558;2023-05-07T13:23:02;19.60;48.40
42913;DHT22;50720;54.324;18.558;2023-05-07T13:25:33;19.90;48.50
42913;DHT22;50720;54.324;18.558;2023-05-07T13:28:05;19.90;47.60
42913;DHT22;50720;54.324;18.558;2023-05-07T13:30:38;20.10;47.60
42913;DHT22;50720;54.324;18.558;2023-05-07T13:33:08;20.00;48.00
42913;DHT22;50720;54.324;18.558;2023-05-07T13:35:38;20.00;46.80
42913;DHT22;50720;54.324;18.558;2023-05-07T13:38:08;20.00;47.60
42913;DHT22;50720;54.324;18.558;2023-05-07T13:40:39;19.60;48.20
42913;DHT22;50720;54.324;18.558;2023-05-07T13:43:09;19.80;48.50
42913;DHT22;50720;54.324;18.558;2023-05-07T13:45:38;20.20;48.70
42913;DHT22;50720;54.324;18.558;2023-05-07T13:48:08;20.20;47.80
42913;DHT22;50720;54.324;18.558;2023-05-07T13:50:37;19.70;47.10
42913;DHT22;50720;54.324;18.558;2023-05-07T13:53:08;19.90;47.20
42913;DHT22;50720;54.324;18.558;2023-05-07T13:55:38;19.60;47.10
42913;DHT22;50720;54.324;18.558;2023-05-07T13:58:08;19.60;47.40
42913;DHT22;50720;54.324;18.558;2023-05-07T14:00:37;19.60;47.50
42913;DHT22;50720;54.324;18.558;2023-05-07T14:03:07;19.90;46.90
42913;DHT22;50720;54.324;18.558;2023-05-07T14:05:37;20.00;46.40
42913;DHT22;50720;54.324;18.558;2023-05-07T14:08:06;20.10;46.80
42913;DHT22;50720;54.324;18.558;2023-05-07T14:10:36;19.80;46.10
42913;DHT22;50720;54.324;18.558;2023-05-07T14:13:07;19.60;46.70
42913;DHT22;50720;54.324;18.558;2023-05-07T14:15:37;19.70;46.70
42913;DHT22;50720;54.324;18.558;2023-05-07T14:18:06;19.70;46.00
42913;DHT22;50720;54.324;18.558;2023-05-07T14:20:36;19.60;45.70
42913;DHT22;50720;54.324;18.558;2023-05-07T14:23:06;19.30;45.70
42913;DHT22;50720;54.324;18.558;2023-05-07T14:25:35;19.00;46.10
42913;DHT22;50720;54.324;18.558;2023-05-07T14:28:06;19.30;47.40
42913;DHT22;50720;54.324;18.558;2023-05-07T14:30:36;19.50;45.90
42913;DHT22;50720;54.324;18.558;2023-05-07T14:33:06;19.60;45.50
42913;DHT22;50720;54.324;18.558;2023-05-07T14:35:35;19.40;45.50
42913;DHT22;50720;54.324;18.558;2023-05-07T14:38:05;19.50;46.00
42913;DHT22;50720;54.324;18.558;2023-05-07T14:40:34;19.30;46.10
42913;DHT22;50720;54.324;18.558;2023-05-07T14:43:04;19.50;46.10
42913;DHT22;50720;54.324;18.558;2023-05-07T14:45:35;19.50;45.70
42913;DHT22;50720;54.324;18.558;2023-05-07T14:48:05;18.90;46.60
42913;DHT22;50720;54.324;18.558;2023-05-07T14:50:34;19.00;47.00
42913;DHT22;50720;54.324;18.558;2023-05-07T14:53:04;19.20;47.10
42913;DHT22;50720;54.324;18.558;2023-05-07T14:55:34;19.20;46.10
42913;DHT22;50720;54.324;18.558;2023-05-07T14:58:04;19.30;46.40
42913;DHT22;50720;54.324;18.558;2023-05-07T15:00:35;19.20;45.40
42913;DHT22;50720;54.324;18.558;2023-05-07T15:03:06;18.90;46.10
42913;DHT22;50720;54.324;18.558;2023-05-07T15:05:36;18.80;46.00
42913;DHT22;50720;54.324;18.558;2023-05-07T15:08:06;19.00;46.70
42913;DHT22;50720;54.324;18.558;2023-05-07T15:10:36;19.10;46.80
42913;DHT22;50720;54.324;18.558;2023-05-07T15:13:09;19.30;46.40
42913;DHT22;50720;54.324;18.558;2023-05-07T15:15:44;19.40;46.20
42913;DHT22;50720;54.324;18.558;2023-05-07T15:18:14;18.70;46.20
42913;DHT22;50720;54.324;18.558;2023-05-07T15:20:44;18.60;46.40
42913;DHT22;50720;54.324;18.558;2023-05-07T15:23:14;18.80;46.30
42913;DHT22;50720;54.324;18.558;2023-05-07T15:25:44;18.60;46.70
42913;DHT22;50720;54.324;18.558;2023-05-07T15:28:17;18.70;47.00
42913;DHT22;50720;54.324;18.558;2023-05-07T15:30:48;18.80;47.30
42913;DHT22;50720;54.324;18.558;2023-05-07T15:33:18;18.60;47.70
42913;DHT22;50720;54.324;18.558;2023-05-07T15:35:47;18.30;47.80
42913;DHT22;50720;54.324;18.558;2023-05-07T15:38:17;18.30;47.90
42913;DHT22;50720;54.324;18.558;2023-05-07T15:40:46;18.30;48.00
42913;DHT22;50720;54.324;18.558;2023-05-07T15:43:16;18.30;48.50
42913;DHT22;50720;54.324;18.558;2023-05-07T15:45:45;18.50;47.70
42913;DHT22;50720;54.324;18.558;2023-05-07T15:48:17;18.40;47.00
42913;DHT22;50720;54.324;18.558;2023-05-07T15:50:46;18.50;47.30
42913;DHT22;50720;54.324;18.558;2023-05-07T15:53:16;18.40;47.50